Time;durP1;ratioP1;P1;durP2;ratioP2;P2;SDS_P1;SDS_P2;PMS_P1;PMS_P2;Temp;Humidity;BMP_temperature;BMP_pressure;BME280_temperature;BME280_humidity;BME280_pressure;Samples;Min_cycle;Max_cycle;Signal;HPM_P1;HPM_P2
2024/04/17 00:01:18;;;;;;;1.38;0.70;;;;;;;5.99;43.93;91522.34;5500330;25;20006;-79
2024/04/17 00:03:44;;;;;;;0.73;0.55;;;;;;;6.00;43.59;91518.66;5498074;26;20008;-79
2024/04/17 00:06:10;;;;;;;0.60;0.60;;;;;;;6.08;43.77;91519.09;5504991;26;19994;-78
2024/04/17 00:08:35;;;;;;;1.08;0.70;;;;;;;6.08;44.48;91519.88;5474088;26;20006;-78
2024/04/17 00:11:02;;;;;;;3.25;0.80;;;;;;;6.01;44.37;91512.44;5493254;26;20002;-78
2024/04/17 00:13:28;;;;;;;0.57;0.57;;;;;;;6.02;44.08;91521.00;5462617;26;19999;-79
2024/04/17 00:15:58;;;;;;;1.05;0.80;;;;;;;5.95;45.31;91517.97;5448276;26;19999;-79
2024/04/17 00:18:24;;;;;;;0.60;0.60;;;;;;;5.86;46.57;91520.41;5467607;26;20025;-79
2024/04/17 00:20:49;;;;;;;0.82;0.80;;;;;;;5.83;48.03;91520.94;5467346;26;20002;-78
2024/04/17 00:23:15;;;;;;;1.95;0.88;;;;;;;5.75;50.83;91513.78;5448864;26;20000;-78
2024/04/17 00:25:41;;;;;;;0.80;0.73;;;;;;;5.68;51.71;91508.19;5451337;26;20048;-78
2024/04/17 00:28:06;;;;;;;1.05;0.68;;;;;;;5.60;52.57;91512.91;5467381;26;19998;-78
2024/04/17 00:30:32;;;;;;;0.93;0.60;;;;;;;5.55;54.99;91509.63;5454314;26;20001;-78
2024/04/17 00:32:58;;;;;;;0.93;0.80;;;;;;;5.47;58.17;91505.84;5455865;26;19999;-78
2024/04/17 00:35:23;;;;;;;2.72;0.85;;;;;;;5.41;61.58;91499.91;5458455;26;19999;-78
2024/04/17 00:37:49;;;;;;;1.10;0.90;;;;;;;5.30;65.28;91497.72;5436179;26;20076;-79
2024/04/17 00:40:15;;;;;;;0.82;0.80;;;;;;;5.29;65.89;91499.56;5456042;26;20047;-79
2024/04/17 00:42:40;;;;;;;0.63;0.60;;;;;;;5.21;66.86;91500.94;5469833;26;20003;-79
2024/04/17 00:45:06;;;;;;;1.70;0.90;;;;;;;5.14;67.68;91492.72;5449790;26;20009;-78
2024/04/17 00:47:32;;;;;;;1.40;0.80;;;;;;;5.14;67.60;91495.31;5456668;26;20036;-79
2024/04/17 00:49:57;;;;;;;3.00;0.80;;;;;;;5.07;70.42;91494.09;5459224;26;20474;-80
2024/04/17 00:52:24;;;;;;;1.55;0.80;;;;;;;4.99;69.72;91492.88;5480070;26;19999;-80
2024/04/17 00:54:50;;;;;;;0.85;0.80;;;;;;;4.94;69.03;91498.13;5446482;26;20056;-79
2024/04/17 00:57:15;;;;;;;1.88;0.70;;;;;;;4.89;68.14;91490.41;5459602;26;20420;-79
2024/04/17 00:59:42;;;;;;;0.80;0.70;;;;;;;4.79;65.82;91489.41;5453349;26;19998;-79
2024/04/17 01:02:08;;;;;;;0.68;0.68;;;;;;;4.74;65.89;91486.13;5463045;26;20003;-79
2024/04/17 01:04:34;;;;;;;0.60;0.60;;;;;;;4.76;64.96;91487.38;5449311;26;20017;-78
2024/04/17 01:07:00;;;;;;;0.65;0.60;;;;;;;4.75;63.20;91493.63;5448956;26;20006;-79
2024/04/17 01:09:25;;;;;;;1.00;0.77;;;;;;;4.80;61.56;91483.22;5461980;26;20578;-79
2024/04/17 01:11:51;;;;;;;1.40;0.68;;;;;;;4.89;64.80;91480.03;5462139;26;20456;-79
2024/04/17 01:14:17;;;;;;;3.15;0.90;;;;;;;4.92;69.28;91479.47;5462607;26;20074;-79
2024/04/17 01:16:43;;;;;;;0.73;0.73;;;;;;;4.94;71.25;91477.38;5499282;26;20010;-79
2024/04/17 01:19:09;;;;;;;0.93;0.80;;;;;;;4.94;71.74;91464.41;5491234;26;19998;-79
2024/04/17 01:21:36;;;;;;;3.40;0.80;;;;;;;4.87;72.90;91461.38;5493237;26;19998;-79
2024/04/17 01:24:02;;;;;;;0.57;0.55;;;;;;;4.90;70.72;91471.94;5501393;26;19994;-79
2024/04/17 01:26:27;;;;;;;3.30;0.70;;;;;;;4.87;72.70;91464.72;5466553;26;20051;-79
2024/04/17 01:28:53;;;;;;;0.88;0.70;;;;;;;4.80;74.67;91452.09;5465501;26;20271;-79
2024/04/17 01:31:19;;;;;;;1.23;0.70;;;;;;;4.77;75.69;91455.25;5466449;26;20026;-79
2024/04/17 01:33:45;;;;;;;1.05;0.73;;;;;;;4.72;75.75;91454.50;5493830;26;20014;-80
2024/04/17 01:36:11;;;;;;;0.57;0.57;;;;;;;4.69;76.59;91458.44;5501426;26;20006;-79
2024/04/17 01:38:38;;;;;;;2.22;0.93;;;;;;;4.67;75.53;91468.28;5501444;26;20177;-79
2024/04/17 01:41:03;;;;;;;1.58;0.82;;;;;;;4.68;75.64;91463.88;5460410;26;20002;-79
2024/04/17 01:43:30;;;;;;;1.75;0.73;;;;;;;4.65;77.91;91462.59;5490546;26;20009;-79
2024/04/17 01:45:56;;;;;;;0.70;0.70;;;;;;;4.65;78.72;91467.78;5496268;26;20018;-78
2024/04/17 01:48:22;;;;;;;0.73;0.70;;;;;;;4.63;79.87;91458.75;5466735;26;20006;-78
2024/04/17 01:50:48;;;;;;;0.50;0.50;;;;;;;4.55;82.65;91453.13;5462066;26;20009;-78
2024/04/17 01:53:14;;;;;;;1.80;0.95;;;;;;;4.49;83.02;91448.25;5438085;26;19998;-78
2024/04/17 01:55:39;;;;;;;2.58;0.70;;;;;;;4.55;84.35;91457.53;5431621;26;20514;-79
2024/04/17 01:58:06;;;;;;;2.25;0.98;;;;;;;4.50;85.31;91453.19;5499918;26;19994;-79
2024/04/17 02:00:34;;;;;;;0.60;0.60;;;;;;;4.46;88.44;91456.56;5498362;26;20016;-79
2024/04/17 02:03:00;;;;;;;12.05;1.00;;;;;;;4.41;83.73;91457.38;5498709;26;20426;-78
2024/04/17 02:05:26;;;;;;;2.50;0.95;;;;;;;4.36;86.88;91455.59;5467512;26;20005;-79
2024/04/17 02:07:52;;;;;;;2.75;1.00;;;;;;;4.31;84.33;91453.06;5429006;26;20003;-78
2024/04/17 02:10:17;;;;;;;0.93;0.82;;;;;;;4.28;84.07;91443.25;5489302;26;20045;-79
2024/04/17 02:12:43;;;;;;;1.05;0.82;;;;;;;4.28;83.14;91448.44;5486186;26;20002;-79
2024/04/17 02:15:09;;;;;;;1.33;0.68;;;;;;;4.23;84.45;91445.88;5491693;26;20014;-79
2024/04/17 02:17:34;;;;;;;1.77;0.70;;;;;;;4.22;80.63;91441.75;5491264;26;19999;-79
2024/04/17 02:20:00;;;;;;;1.95;0.80;;;;;;;4.17;79.54;91439.22;5461588;26;20009;-79
2024/04/17 02:22:27;;;;;;;2.63;1.00;;;;;;;4.18;78.79;91444.09;5490286;26;20003;-79
2024/04/17 02:24:52;;;;;;;1.80;0.80;;;;;;;4.15;77.98;91434.28;5493463;26;20012;-79
2024/04/17 02:27:18;;;;;;;1.02;0.70;;;;;;;4.23;77.24;91448.47;5483302;26;20509;-79
2024/04/17 02:29:44;;;;;;;1.00;0.73;;;;;;;4.22;77.00;91443.56;5462975;26;19998;-79
2024/04/17 02:32:09;;;;;;;6.55;0.93;;;;;;;4.25;76.91;91448.97;5495291;26;20040;-80
2024/04/17 02:34:35;;;;;;;1.20;0.80;;;;;;;4.31;77.43;91447.13;5457642;26;20386;-79
2024/04/17 02:37:02;;;;;;;1.30;1.00;;;;;;;4.62;78.14;91447.63;5491951;26;20001;-78
2024/04/17 02:39:27;;;;;;;1.17;0.77;;;;;;;4.54;81.53;91450.78;5484854;26;20014;-79
2024/04/17 02:41:53;;;;;;;3.45;1.20;;;;;;;4.44;86.04;91453.50;5495704;26;20002;-79
2024/04/17 02:44:18;;;;;;;3.38;1.10;;;;;;;4.32;90.32;91452.03;5487631;26;20177;-79
2024/04/17 02:46:44;;;;;;;1.45;1.00;;;;;;;4.26;89.29;91450.53;5460343;26;19998;-79
2024/04/17 02:49:09;;;;;;;4.57;1.13;;;;;;;4.16;90.47;91443.59;5487322;26;19998;-79
2024/04/17 02:51:35;;;;;;;0.68;0.68;;;;;;;4.14;89.85;91442.31;5496330;26;19998;-79
2024/04/17 02:54:01;;;;;;;0.90;0.70;;;;;;;4.04;86.00;91443.19;5455454;26;20002;-79
2024/04/17 02:56:26;;;;;;;0.60;0.60;;;;;;;4.02;84.38;91440.09;5496177;26;20005;-78
2024/04/17 02:58:52;;;;;;;1.00;0.80;;;;;;;4.01;87.27;91437.75;5431272;26;20496;-79
2024/04/17 03:01:17;;;;;;;1.55;0.90;;;;;;;3.99;90.15;91439.88;5460124;26;20002;-78
2024/04/17 03:03:43;;;;;;;1.63;1.05;;;;;;;3.95;93.36;91435.22;5493821;26;19994;-79
2024/04/17 03:06:10;;;;;;;3.92;1.08;;;;;;;3.93;99.09;91429.53;5485757;26;20013;-79
2024/04/17 03:08:35;;;;;;;0.80;0.68;;;;;;;3.88;96.66;91439.94;5461500;26;20017;-79
2024/04/17 03:11:02;;;;;;;0.90;0.70;;;;;;;3.82;94.24;91435.84;5490557;26;20432;-79
2024/04/17 03:13:27;;;;;;;1.45;0.60;;;;;;;3.77;90.49;91428.13;5495123;26;20043;-79
2024/04/17 03:15:53;;;;;;;0.68;0.63;;;;;;;3.70;88.77;91430.25;5492995;26;20014;-79
2024/04/17 03:18:20;;;;;;;0.60;0.60;;;;;;;3.60;88.75;91425.88;5490265;26;20038;-79
2024/04/17 03:20:45;;;;;;;1.25;0.73;;;;;;;3.53;90.00;91420.25;5462732;26;20013;-79
2024/04/17 03:23:11;;;;;;;0.60;0.60;;;;;;;3.56;89.63;91427.47;5492910;26;19994;-79
2024/04/17 03:25:37;;;;;;;1.05;0.60;;;;;;;3.61;83.78;91418.91;5492391;26;20021;-80
2024/04/17 03:28:03;;;;;;;0.50;0.50;;;;;;;3.77;79.87;91424.75;5490899;26;20082;-78
2024/04/17 03:30:29;;;;;;;0.63;0.50;;;;;;;3.88;77.70;91419.22;5488026;26;19994;-79
2024/04/17 03:32:56;;;;;;;0.52;0.52;;;;;;;4.01;77.14;91422.22;5492637;26;20013;-79
2024/04/17 03:35:22;;;;;;;2.78;0.43;;;;;;;4.08;77.50;91422.72;5492876;26;20016;-79
2024/04/17 03:37:47;;;;;;;0.57;0.57;;;;;;;4.13;75.60;91420.06;5492789;26;19998;-79
2024/04/17 03:40:13;;;;;;;3.75;0.80;;;;;;;4.25;73.59;91417.13;5485772;26;19998;-78
2024/04/17 03:42:39;;;;;;;0.52;0.40;;;;;;;4.29;72.42;91418.88;5490474;26;20009;-79
2024/04/17 03:45:05;;;;;;;1.10;0.65;;;;;;;4.28;77.21;91419.94;5479709;26;20128;-79
2024/04/17 03:47:31;;;;;;;2.03;1.10;;;;;;;4.26;93.71;91421.25;5458007;26;20002;-78
2024/04/17 03:50:04;;;;;;;2.42;1.30;;;;;;;4.20;100.00;91414.56;5491647;26;20008;-79
2024/04/17 03:52:31;;;;;;;1.67;1.20;;;;;;;4.12;100.00;91423.69;5491315;26;20026;-79
2024/04/17 03:54:57;;;;;;;1.70;1.20;;;;;;;3.94;100.00;91418.16;5494147;26;20001;-79
2024/04/17 03:57:23;;;;;;;4.10;0.88;;;;;;;3.87;100.00;91422.06;5459825;26;20014;-78
2024/04/17 03:59:48;;;;;;;4.30;1.20;;;;;;;3.82;100.00;91414.34;5461349;26;20044;-77
2024/04/17 04:02:14;;;;;;;1.15;0.90;;;;;;;3.79;100.00;91420.84;5482645;26;20017;-80
2024/04/17 04:04:40;;;;;;;1.20;0.90;;;;;;;3.72;100.00;91420.41;5434559;26;20013;-77
2024/04/17 04:07:05;;;;;;;2.42;1.23;;;;;;;3.67;100.00;91417.81;5476866;26;20005;-78
2024/04/17 04:09:31;;;;;;;1.60;1.10;;;;;;;3.62;100.00;91412.69;5481560;26;20008;-78
2024/04/17 04:11:57;;;;;;;1.60;1.20;;;;;;;3.54;100.00;91414.03;5456996;26;20008;-78
2024/04/17 04:14:23;;;;;;;4.40;1.40;;;;;;;3.55;100.00;91421.50;5458881;26;20318;-79
2024/04/17 04:16:48;;;;;;;2.03;1.02;;;;;;;3.50;100.00;91423.38;5457292;26;20043;-79
2024/04/17 04:19:14;;;;;;;1.48;0.98;;;;;;;3.42;100.00;91418.75;5484908;26;20009;-78
2024/04/17 04:21:40;;;;;;;1.80;0.90;;;;;;;3.42;100.00;91416.94;5447445;26;20036;-79
2024/04/17 04:24:06;;;;;;;1.10;0.80;;;;;;;3.39;100.00;91427.84;5446966;26;20003;-79
2024/04/17 04:26:31;;;;;;;1.30;0.88;;;;;;;3.41;99.84;91430.94;5458484;26;20051;-78
2024/04/17 04:28:57;;;;;;;4.18;0.80;;;;;;;3.39;97.46;91427.06;5480330;26;20002;-79
2024/04/17 04:31:24;;;;;;;0.98;0.88;;;;;;;3.42;93.22;91427.28;5444754;26;20006;-80
2024/04/17 04:33:49;;;;;;;1.92;0.93;;;;;;;3.39;88.52;91432.25;5476075;26;20412;-79
2024/04/17 04:36:15;;;;;;;2.50;0.70;;;;;;;3.39;84.11;91435.59;5479993;26;20006;-79
2024/04/17 04:38:42;;;;;;;1.48;0.57;;;;;;;3.38;82.91;91434.06;5491494;26;20009;-79
2024/04/17 04:41:07;;;;;;;2.45;0.70;;;;;;;3.41;88.24;91438.69;5487625;26;20013;-79
2024/04/17 04:43:33;;;;;;;0.57;0.57;;;;;;;3.45;88.00;91431.94;5456866;26;20002;-79
2024/04/17 04:45:59;;;;;;;0.95;0.70;;;;;;;3.46;89.63;91443.81;5494411;26;20013;-79
2024/04/17 04:48:24;;;;;;;0.73;0.60;;;;;;;3.46;91.28;91441.25;5494816;26;20058;-79
2024/04/17 04:50:50;;;;;;;6.25;1.00;;;;;;;3.47;90.92;91444.63;5486652;26;20010;-77
2024/04/17 04:53:15;;;;;;;0.70;0.57;;;;;;;3.42;90.01;91440.22;5458588;26;20013;-79
2024/04/17 04:55:41;;;;;;;2.55;0.70;;;;;;;3.45;88.04;91446.69;5493672;26;20009;-79
2024/04/17 04:58:06;;;;;;;0.63;0.60;;;;;;;3.51;87.49;91438.63;5492191;26;19998;-78
2024/04/17 05:00:32;;;;;;;0.65;0.65;;;;;;;3.54;87.29;91443.28;5452545;26;20002;-78
2024/04/17 05:02:58;;;;;;;0.60;0.60;;;;;;;3.57;86.35;91443.78;5450983;26;20074;-78
2024/04/17 05:05:23;;;;;;;0.90;0.60;;;;;;;3.58;87.16;91438.34;5443728;26;20016;-79
2024/04/17 05:07:49;;;;;;;0.63;0.50;;;;;;;3.59;86.71;91431.34;5443655;26;20057;-76
2024/04/17 05:10:15;;;;;;;0.93;0.73;;;;;;;3.62;83.35;91421.22;5421896;26;20042;-78
2024/04/17 05:12:40;;;;;;;1.15;0.68;;;;;;;3.80;79.53;91434.56;5478689;26;20020;-78
2024/04/17 05:15:06;;;;;;;0.70;0.70;;;;;;;3.84;79.71;91431.16;5442060;26;20010;-79
2024/04/17 05:17:32;;;;;;;3.63;0.73;;;;;;;4.00;78.66;91436.22;5465401;26;19999;-79
2024/04/17 05:19:58;;;;;;;0.60;0.60;;;;;;;4.11;76.67;91437.69;5444240;26;20052;-79
2024/04/17 05:22:24;;;;;;;2.88;0.90;;;;;;;4.22;76.03;91435.81;5447552;26;20003;-79
2024/04/17 05:24:49;;;;;;;0.50;0.50;;;;;;;4.36;72.91;91426.34;5441260;26;20018;-79
2024/04/17 05:27:15;;;;;;;1.20;0.60;;;;;;;4.56;67.72;91433.16;5435996;26;19995;-79
2024/04/17 05:29:40;;;;;;;1.42;0.68;;;;;;;4.74;67.56;91436.84;5443674;26;20002;-80
2024/04/17 05:32:06;;;;;;;0.47;0.45;;;;;;;4.91;66.53;91426.03;5474837;26;20003;-78
2024/04/17 05:34:32;;;;;;;0.57;0.57;;;;;;;5.10;64.98;91432.03;5446827;26;20003;-79
2024/04/17 05:36:58;;;;;;;0.50;0.50;;;;;;;5.32;60.89;91438.53;5441108;26;20010;-79
2024/04/17 05:39:24;;;;;;;0.50;0.50;;;;;;;5.57;58.90;91434.84;5430986;26;20017;-78
2024/04/17 05:41:49;;;;;;;0.65;0.60;;;;;;;5.72;59.09;91441.63;5428843;26;20042;-79
2024/04/17 05:44:15;;;;;;;0.70;0.70;;;;;;;5.84;58.08;91437.56;5438379;26;20119;-78
2024/04/17 05:46:42;;;;;;;0.60;0.55;;;;;;;5.96;58.49;91437.16;5449043;26;20003;-78
2024/04/17 05:49:07;;;;;;;0.95;0.60;;;;;;;6.42;63.39;91444.25;5447398;26;20013;-78
2024/04/17 05:51:33;;;;;;;0.55;0.55;;;;;;;6.48;61.19;91447.50;5413465;26;20002;-77
2024/04/17 05:53:59;;;;;;;0.45;0.45;;;;;;;6.57;56.82;91450.22;5443107;26;20442;-77
2024/04/17 05:56:24;;;;;;;0.60;0.60;;;;;;;6.57;52.73;91440.59;5442641;26;20014;-77
2024/04/17 05:58:50;;;;;;;0.60;0.60;;;;;;;6.73;55.49;91438.50;5411981;26;20451;-77
2024/04/17 06:01:15;;;;;;;0.50;0.50;;;;;;;6.84;55.70;91439.84;5440858;26;20011;-78
2024/04/17 06:03:42;;;;;;;0.75;0.60;;;;;;;7.01;56.36;91434.09;5446042;26;20478;-78
2024/04/17 06:06:07;;;;;;;0.50;0.50;;;;;;;7.19;56.42;91445.47;5445756;26;20035;-78
2024/04/17 06:08:33;;;;;;;2.30;0.57;;;;;;;7.40;57.33;91442.47;5442673;26;20423;-78
2024/04/17 06:10:59;;;;;;;0.70;0.70;;;;;;;7.57;51.00;91450.44;5442395;26;20002;-78
2024/04/17 06:13:24;;;;;;;0.55;0.55;;;;;;;7.75;51.28;91432.38;5442296;26;20415;-77
2024/04/17 06:15:50;;;;;;;0.60;0.60;;;;;;;7.91;52.29;91444.75;5447932;26;20031;-77
2024/04/17 06:18:15;;;;;;;0.93;0.77;;;;;;;8.11;53.01;91437.56;5437898;26;19999;-78
2024/04/17 06:20:41;;;;;;;0.50;0.50;;;;;;;8.92;46.86;91428.84;5446954;26;20014;-78
2024/04/17 06:23:07;;;;;;;0.50;0.50;;;;;;;10.09;42.32;91422.16;5444526;26;20406;-78
2024/04/17 06:25:32;;;;;;;0.60;0.60;;;;;;;11.58;40.09;91430.34;5447751;26;20010;-78
2024/04/17 06:27:59;;;;;;;0.70;0.70;;;;;;;12.03;36.53;91420.06;5448020;26;20420;-77
2024/04/17 06:30:25;;;;;;;0.50;0.50;;;;;;;12.50;35.56;91416.44;5441874;26;20004;-79
2024/04/17 06:32:50;;;;;;;0.63;0.63;;;;;;;13.21;35.25;91419.84;5419945;26;20273;-79
2024/04/17 06:35:16;;;;;;;1.00;0.77;;;;;;;13.20;37.56;91429.59;5426612;26;20006;-79
2024/04/17 06:37:41;;;;;;;1.67;1.25;;;;;;;13.25;37.73;91428.59;5436784;26;20404;-78
2024/04/17 06:40:08;;;;;;;1.60;0.98;;;;;;;13.23;38.55;91425.53;5415194;26;20079;-79
2024/04/17 06:42:34;;;;;;;1.27;0.90;;;;;;;13.29;38.39;91440.03;5445801;26;20309;-78
2024/04/17 06:45:01;;;;;;;2.47;1.10;;;;;;;13.64;37.34;91435.09;5444740;26;20127;-78
2024/04/17 06:47:27;;;;;;;0.60;0.60;;;;;;;13.64;30.41;91429.81;5447302;26;20010;-78
2024/04/17 06:49:53;;;;;;;0.98;0.68;;;;;;;14.12;32.82;91443.25;5446801;26;20502;-78
2024/04/17 06:52:18;;;;;;;2.20;1.00;;;;;;;14.37;34.83;91425.53;5435715;26;20007;-79
2024/04/17 06:54:44;;;;;;;0.85;0.65;;;;;;;13.79;32.39;91433.66;5446852;26;19999;-78
2024/04/17 06:57:10;;;;;;;0.70;0.70;;;;;;;13.56;34.23;91437.84;5446691;26;19999;-78
2024/04/17 06:59:35;;;;;;;3.40;0.68;;;;;;;13.43;34.82;91445.72;5415432;26;20552;-78
2024/04/17 07:02:01;;;;;;;1.83;0.68;;;;;;;12.62;36.19;91434.81;5445247;26;20003;-77
2024/04/17 07:04:26;;;;;;;3.10;0.98;;;;;;;12.35;37.10;91425.66;5444660;26;20392;-78
2024/04/17 07:06:52;;;;;;;1.02;0.80;;;;;;;12.15;38.85;91434.31;5468438;26;20003;-79
2024/04/17 07:09:18;;;;;;;0.70;0.70;;;;;;;11.81;40.60;91434.22;5444548;26;20439;-78
2024/04/17 07:11:43;;;;;;;2.67;1.25;;;;;;;11.68;43.03;91427.34;5445410;26;20366;-79
2024/04/17 07:14:09;;;;;;;1.80;0.95;;;;;;;11.90;42.22;91431.56;5446657;26;20011;-79
2024/04/17 07:16:35;;;;;;;1.92;0.93;;;;;;;11.98;41.65;91417.63;5413479;26;20007;-79
2024/04/17 07:19:00;;;;;;;2.25;0.70;;;;;;;12.40;40.95;91427.31;5444670;26;20417;-78
2024/04/17 07:21:26;;;;;;;2.30;0.95;;;;;;;12.66;40.98;91427.09;5439613;26;19995;-79
2024/04/17 07:23:52;;;;;;;1.67;0.90;;;;;;;12.42;35.99;91418.03;5446680;26;20391;-78
2024/04/17 07:26:18;;;;;;;1.27;0.90;;;;;;;12.79;39.93;91412.09;5415024;26;20448;-78
2024/04/17 07:28:43;;;;;;;0.50;0.50;;;;;;;13.08;32.61;91413.78;5435418;26;20142;-78
2024/04/17 07:31:09;;;;;;;1.73;0.98;;;;;;;12.32;37.74;91415.06;5447396;26;20011;-79
2024/04/17 07:33:35;;;;;;;2.00;1.00;;;;;;;12.54;39.83;91427.03;5447725;26;19995;-78
2024/04/17 07:36:00;;;;;;;1.15;0.73;;;;;;;12.28;38.39;91405.19;5450162;26;20002;-79
2024/04/17 07:38:26;;;;;;;0.50;0.50;;;;;;;12.42;39.27;91415.41;5456450;26;19999;-78
2024/04/17 07:40:57;;;;;;;0.70;0.70;;;;;;;11.77;35.95;91419.44;5447676;26;20003;-78
2024/04/17 07:43:23;;;;;;;0.70;0.70;;;;;;;11.13;40.51;91415.94;5444542;26;20021;-79
2024/04/17 07:45:51;;;;;;;0.60;0.60;;;;;;;11.87;42.24;91406.75;5444823;26;20003;-79
2024/04/17 07:48:17;;;;;;;1.95;0.93;;;;;;;12.28;40.96;91407.81;5444784;26;20032;-78
2024/04/17 07:50:43;;;;;;;2.38;0.60;;;;;;;12.47;38.36;91407.34;5447127;26;20373;-79
2024/04/17 07:53:08;;;;;;;1.08;0.70;;;;;;;12.66;36.31;91403.47;5413721;26;20743;-78
2024/04/17 07:55:34;;;;;;;3.70;1.67;;;;;;;12.27;33.45;91408.91;5447329;26;19999;-79
2024/04/17 07:58:00;;;;;;;0.57;0.57;;;;;;;12.13;34.98;91397.91;5446486;26;20006;-78
2024/04/17 08:00:25;;;;;;;0.73;0.60;;;;;;;12.17;39.55;91398.03;5445977;26;20473;-79
2024/04/17 08:02:51;;;;;;;0.98;0.60;;;;;;;12.59;32.22;91409.22;5448166;26;20013;-78
2024/04/17 08:05:17;;;;;;;0.50;0.50;;;;;;;12.93;29.71;91393.44;5446659;26;20010;-79
2024/04/17 08:07:42;;;;;;;0.73;0.57;;;;;;;13.10;28.13;91395.84;5445180;26;19999;-78
2024/04/17 08:10:08;;;;;;;1.42;0.73;;;;;;;13.36;29.87;91392.19;5448499;26;19998;-79
2024/04/17 08:12:36;;;;;;;1.85;0.80;;;;;;;13.27;30.18;91416.66;5445702;26;20009;-79
2024/04/17 08:15:02;;;;;;;0.40;0.40;;;;;;;13.28;27.72;91394.59;5445413;26;19999;-79
2024/04/17 08:17:28;;;;;;;0.55;0.55;;;;;;;13.10;31.13;91404.53;5439302;26;20003;-79
2024/04/17 08:19:54;;;;;;;0.63;0.57;;;;;;;13.08;35.13;91403.28;5443225;26;20079;-79
2024/04/17 08:22:19;;;;;;;0.80;0.65;;;;;;;13.38;31.00;91398.63;5445434;26;20047;-79
2024/04/17 08:24:46;;;;;;;0.60;0.50;;;;;;;13.50;32.77;91397.84;5445011;26;20013;-79
2024/04/17 08:27:11;;;;;;;0.60;0.60;;;;;;;13.85;31.42;91397.38;5462440;26;20014;-77
2024/04/17 08:29:37;;;;;;;0.52;0.52;;;;;;;14.12;28.58;91393.25;5443486;26;19995;-78
2024/04/17 08:32:03;;;;;;;0.60;0.55;;;;;;;14.18;29.91;91393.78;5429592;26;19999;-79
2024/04/17 08:34:29;;;;;;;0.85;0.50;;;;;;;14.18;30.29;91399.81;5440499;26;20404;-79
2024/04/17 08:36:55;;;;;;;0.43;0.43;;;;;;;14.33;28.56;91398.34;5441440;26;20013;-79
2024/04/17 08:39:20;;;;;;;0.45;0.45;;;;;;;14.33;27.33;91401.72;5446339;26;19998;-79
2024/04/17 08:41:48;;;;;;;0.40;0.40;;;;;;;14.35;28.17;91399.53;5442451;26;19999;-78
2024/04/17 08:44:28;;;;;;;0.32;0.32;;;;;;;14.25;26.57;91393.97;5446404;26;20075;-79
2024/04/17 08:46:55;;;;;;;0.55;0.55;;;;;;;14.29;27.59;91406.13;5435988;26;20003;-77
2024/04/17 08:49:21;;;;;;;0.40;0.40;;;;;;;14.08;27.77;91395.03;5436201;26;20485;-80
2024/04/17 08:51:47;;;;;;;0.43;0.43;;;;;;;14.42;27.21;91403.47;5438989;26;20006;-78
2024/04/17 08:54:16;;;;;;;0.50;0.50;;;;;;;14.32;26.22;91399.41;5433254;26;20403;-78
2024/04/17 08:56:42;;;;;;;0.82;0.60;;;;;;;14.49;26.88;91388.59;5443567;26;20022;-78
2024/04/17 08:59:09;;;;;;;0.50;0.50;;;;;;;14.85;27.53;91401.97;5436645;26;20031;-79
2024/04/17 09:01:36;;;;;;;0.40;0.40;;;;;;;14.67;24.98;91396.25;5439795;26;20007;-78
2024/04/17 09:04:03;;;;;;;2.35;0.70;;;;;;;14.83;27.53;91396.25;5442897;26;20050;-78
2024/04/17 09:06:29;;;;;;;0.85;0.50;;;;;;;15.00;26.36;91398.59;5439336;26;20006;-79
2024/04/17 09:09:03;;;;;;;0.50;0.50;;;;;;;15.05;27.26;91400.19;5427947;26;20007;-79
2024/04/17 09:11:30;;;;;;;1.65;0.50;;;;;;;15.42;27.25;91398.06;5441038;26;20412;-79
2024/04/17 09:13:55;;;;;;;0.57;0.57;;;;;;;15.31;25.22;91389.13;5435981;26;21634;-80
2024/04/17 09:16:21;;;;;;;0.55;0.55;;;;;;;15.08;27.49;91391.59;5440850;26;20034;-80
2024/04/17 09:18:48;;;;;;;1.35;0.57;;;;;;;14.84;28.63;91389.88;5438927;26;20444;-80
2024/04/17 09:21:14;;;;;;;2.45;0.80;;;;;;;15.01;26.43;91392.19;5447612;26;19995;-79
2024/04/17 09:23:40;;;;;;;1.88;0.73;;;;;;;14.90;26.65;91388.53;5448385;26;20006;-78
2024/04/17 09:26:18;;;;;;;0.50;0.50;;;;;;;15.14;29.12;91379.72;5448043;26;19999;-78
2024/04/17 09:28:45;;;;;;;1.75;0.75;;;;;;;15.43;27.37;91389.06;5436864;26;20003;-77
2024/04/17 09:31:11;;;;;;;0.50;0.50;;;;;;;14.52;30.23;91376.63;5444036;26;20068;-77
2024/04/17 09:33:46;;;;;;;0.30;0.30;;;;;;;15.04;29.03;91390.75;5443099;26;20011;-79
2024/04/17 09:36:13;;;;;;;1.38;0.70;;;;;;;14.73;27.98;91385.13;5448473;26;20363;-78
2024/04/17 09:38:41;;;;;;;0.60;0.60;;;;;;;15.00;28.40;91369.59;5445580;26;20042;-78
2024/04/17 09:41:08;;;;;;;0.60;0.60;;;;;;;15.06;27.10;91383.28;5447061;26;20033;-78
2024/04/17 09:43:45;;;;;;;3.50;0.60;;;;;;;15.34;27.72;91375.28;5442843;26;20450;-77
2024/04/17 09:46:14;;;;;;;0.47;0.47;;;;;;;15.25;24.89;91372.06;5445077;26;20361;-79
2024/04/17 09:48:43;;;;;;;0.40;0.40;;;;;;;15.84;25.83;91384.31;5445596;26;19995;-78
2024/04/17 09:51:10;;;;;;;0.57;0.57;;;;;;;15.80;24.46;91373.69;5444021;26;20086;-78
2024/04/17 09:53:49;;;;;;;0.57;0.57;;;;;;;15.71;26.42;91377.63;5444932;26;20003;-80
2024/04/17 09:56:16;;;;;;;0.50;0.50;;;;;;;15.45;23.86;91378.16;5447065;26;20012;-79
2024/04/17 09:58:46;;;;;;;0.85;0.50;;;;;;;15.61;25.03;91379.66;5445624;26;20009;-79
2024/04/17 10:01:14;;;;;;;0.85;0.55;;;;;;;15.88;24.69;91374.59;5447107;26;20502;-80
2024/04/17 10:03:41;;;;;;;0.38;0.38;;;;;;;15.90;23.08;91364.47;5446617;26;20015;-79
2024/04/17 10:06:08;;;;;;;0.43;0.43;;;;;;;15.54;22.76;91376.09;5447696;26;20480;-79
2024/04/17 10:08:37;;;;;;;0.40;0.40;;;;;;;15.10;24.16;91366.44;5446309;26;20006;-79
2024/04/17 10:11:04;;;;;;;0.50;0.50;;;;;;;14.65;22.38;91364.22;5447780;26;20017;-80
2024/04/17 10:13:31;;;;;;;1.02;0.50;;;;;;;15.24;25.47;91370.50;5448442;26;20080;-78
2024/04/17 10:15:57;;;;;;;0.45;0.45;;;;;;;15.76;25.01;91374.72;5446168;26;20009;-79
2024/04/17 10:18:23;;;;;;;0.43;0.43;;;;;;;16.06;23.45;91358.38;5449449;26;20537;-80
2024/04/17 10:20:53;;;;;;;0.35;0.35;;;;;;;15.97;23.36;91358.56;5440575;26;20007;-79
2024/04/17 10:23:19;;;;;;;0.40;0.40;;;;;;;16.19;24.23;91352.59;5430764;26;20465;-79
2024/04/17 10:25:53;;;;;;;0.40;0.40;;;;;;;16.45;24.25;91370.44;5448330;26;20010;-79
2024/04/17 10:28:20;;;;;;;0.40;0.40;;;;;;;16.35;21.79;91371.03;5448409;26;20040;-80
2024/04/17 10:30:47;;;;;;;0.40;0.40;;;;;;;16.36;23.57;91356.69;5449101;26;20010;-80
2024/04/17 10:33:18;;;;;;;0.32;0.32;;;;;;;16.59;23.22;91343.53;5436573;26;19998;-79
2024/04/17 10:35:49;;;;;;;0.43;0.40;;;;;;;16.92;22.09;91344.13;5429965;26;20003;-78
2024/04/17 10:38:15;;;;;;;0.60;0.60;;;;;;;17.18;22.56;91352.09;5446086;26;20804;-79
2024/04/17 10:40:41;;;;;;;0.30;0.30;;;;;;;17.09;22.01;91351.59;5446515;26;19999;-79
2024/04/17 10:43:06;;;;;;;0.98;0.60;;;;;;;16.96;22.10;91344.94;5446111;26;19998;-79
2024/04/17 10:45:32;;;;;;;0.30;0.30;;;;;;;17.30;22.90;91359.09;5442505;26;20010;-77
2024/04/17 10:48:01;;;;;;;0.40;0.40;;;;;;;17.39;21.86;91342.97;5434909;26;20010;-80
2024/04/17 10:50:27;;;;;;;0.40;0.40;;;;;;;17.38;22.13;91352.00;5441457;26;20046;-78
2024/04/17 10:52:53;;;;;;;0.30;0.30;;;;;;;17.35;20.81;91329.69;5444870;26;20427;-79
2024/04/17 10:55:20;;;;;;;0.60;0.60;;;;;;;16.56;21.74;91341.59;5435278;26;20123;-79
2024/04/17 10:57:45;;;;;;;0.32;0.32;;;;;;;15.82;22.93;91345.06;5439807;26;20075;-79
2024/04/17 11:00:11;;;;;;;0.40;0.40;;;;;;;16.53;23.81;91344.19;5442519;26;20538;-80
2024/04/17 11:02:37;;;;;;;0.52;0.40;;;;;;;16.33;21.42;91346.84;5436167;26;20450;-81
2024/04/17 11:05:04;;;;;;;0.73;0.45;;;;;;;16.21;20.39;91339.03;5433311;26;20002;-81
2024/04/17 11:07:30;;;;;;;0.40;0.40;;;;;;;16.81;23.19;91333.38;5436350;26;20003;-79
2024/04/17 11:09:56;;;;;;;0.50;0.50;;;;;;;16.65;23.22;91344.00;5434867;26;20023;-81
2024/04/17 11:12:22;;;;;;;0.43;0.43;;;;;;;17.22;22.52;91344.22;5443906;26;20586;-79
2024/04/17 11:14:59;;;;;;;0.40;0.40;;;;;;;17.52;21.80;91344.28;5440579;26;19999;-80
2024/04/17 11:17:25;;;;;;;0.40;0.40;;;;;;;16.75;19.46;91346.09;5428470;26;20003;-80
2024/04/17 11:19:51;;;;;;;0.47;0.40;;;;;;;16.11;21.98;91350.94;5442714;26;20709;-79
2024/04/17 11:22:17;;;;;;;0.40;0.40;;;;;;;15.65;21.79;91347.31;5439328;26;20725;-79
2024/04/17 11:24:47;;;;;;;0.30;0.30;;;;;;;15.46;21.78;91348.78;5430789;26;20002;-79
2024/04/17 11:27:17;;;;;;;0.35;0.35;;;;;;;14.69;21.19;91359.81;5429679;26;20567;-78
2024/04/17 11:29:47;;;;;;;0.30;0.30;;;;;;;14.60;22.39;91346.78;5442959;26;19998;-78
2024/04/17 11:32:13;;;;;;;0.40;0.40;;;;;;;14.56;22.88;91353.81;5451222;26;20412;-78